createdAt,value
2019-02-06T00:00:00.996Z,101593.47
2019-02-06T00:02:31.404Z,101604.84
2019-02-06T00:05:01.636Z,101598.59
2019-02-06T00:07:32.039Z,101600.17
2019-02-06T00:10:02.556Z,101603.58
2019-02-06T00:12:32.794Z,101598.23
2019-02-06T00:15:03.113Z,101600.08
2019-02-06T00:17:59.748Z,101606.47
2019-02-06T00:20:39.743Z,101606.52
2019-02-06T00:23:52.160Z,101609.14
2019-02-06T00:26:23.756Z,101608.25
2019-02-06T00:29:21.882Z,101615.67
2019-02-06T00:32:20.863Z,101619.50
2019-02-06T00:35:00.469Z,101616.98
2019-02-06T00:37:33.667Z,101614.36
2019-02-06T00:40:15.916Z,101611.75
2019-02-06T00:43:00.132Z,101611.66
2019-02-06T00:45:35.502Z,101605.12
2019-02-06T00:48:27.064Z,101605.31
2019-02-06T00:50:57.449Z,101609.58
2019-02-06T00:53:27.769Z,101605.70
2019-02-06T00:55:58.110Z,101598.73
2019-02-06T01:00:54.380Z,101596.65
2019-02-06T01:13:53.042Z,101594.44
2019-02-06T01:16:51.676Z,101592.55
2019-02-06T01:19:22.137Z,101591.14
2019-02-06T01:21:52.432Z,101599.47
2019-02-06T01:24:22.715Z,101593.42
2019-02-06T01:26:53.030Z,101585.63
2019-02-06T01:29:23.298Z,101597.09
2019-02-06T01:32:38.584Z,101601.44
2019-02-06T01:35:10.024Z,101589.73
2019-02-06T01:37:40.401Z,101584.03
2019-02-06T01:40:23.068Z,101583.64
2019-02-06T01:43:00.876Z,101588.20
2019-02-06T01:45:42.906Z,101575.13
2019-02-06T01:51:28.028Z,101578.73
2019-02-06T01:57:23.347Z,101578.56
2019-02-06T02:00:10.706Z,101575.73
2019-02-06T02:03:05.228Z,101576.18
2019-02-06T02:06:01.949Z,101573.58
2019-02-06T02:08:25.996Z,101579.48
2019-02-06T02:11:00.476Z,101582.68
2019-02-06T02:13:37.098Z,101576.24
2019-02-06T02:16:21.031Z,101581.05
2019-02-06T02:18:55.306Z,101577.69
2019-02-06T02:21:28.035Z,101576.17
2019-02-06T02:23:59.543Z,101584.70
2019-02-06T02:26:30.636Z,101574.03
2019-02-06T02:29:01.789Z,101581.51
2019-02-06T02:31:35.214Z,101578.20
2019-02-06T02:34:06.977Z,101571.43
2019-02-06T02:36:38.154Z,101568.19
2019-02-06T02:39:12.759Z,101568.75
2019-02-06T02:41:43.958Z,101563.70
2019-02-06T02:44:19.837Z,101561.66
2019-02-06T02:46:53.757Z,101565.66
2019-02-06T02:49:24.052Z,101569.64
2019-02-06T02:51:54.420Z,101558.13
2019-02-06T02:54:24.771Z,101560.34
2019-02-06T02:56:54.997Z,101560.81
2019-02-06T02:59:25.324Z,101564.36
2019-02-06T03:05:26.021Z,101554.71
2019-02-06T03:08:22.660Z,101558.01
2019-02-06T03:15:14.947Z,101551.21
2019-02-06T03:18:13.891Z,101555.22
2019-02-06T03:21:15.329Z,101547.81
2019-02-06T03:24:20.408Z,101543.36
2019-02-06T03:27:13.137Z,101540.79
2019-02-06T03:30:29.685Z,101544.37
2019-02-06T03:33:36.713Z,101543.91
2019-02-06T03:36:40.377Z,101543.58
2019-02-06T03:39:48.939Z,101539.82
2019-02-06T03:42:37.579Z,101541.95
2019-02-06T03:45:26.753Z,101544.09
2019-02-06T03:48:09.302Z,101537.68
2019-02-06T03:50:56.871Z,101535.24
2019-02-06T03:57:03.637Z,101537.41
2019-02-06T03:59:39.836Z,101535.73
2019-02-06T04:02:18.487Z,101527.55
2019-02-06T04:04:56.861Z,101535.78
2019-02-06T04:07:34.257Z,101538.91
2019-02-06T04:10:09.579Z,101533.25
2019-02-06T04:12:46.651Z,101523.76
2019-02-06T04:15:25.008Z,101526.33
2019-02-06T04:17:59.177Z,101526.41
2019-02-06T04:20:29.676Z,101531.11
2019-02-06T04:22:59.946Z,101517.84
2019-02-06T04:25:30.554Z,101523.42
2019-02-06T04:28:00.926Z,101516.91
2019-02-06T04:30:31.201Z,101516.09
2019-02-06T04:33:02.211Z,101513.92
2019-02-06T04:35:32.540Z,101515.71
2019-02-06T04:38:02.867Z,101516.60
2019-02-06T04:40:37.145Z,101521.80
2019-02-06T04:43:10.590Z,101519.14
2019-02-06T04:45:45.691Z,101525.63
2019-02-06T04:48:19.498Z,101522.70
2019-02-06T04:50:55.391Z,101517.56
2019-02-06T04:53:26.813Z,101516.77
2019-02-06T04:56:24.104Z,101517.99
2019-02-06T04:59:00.672Z,101515.86
2019-02-06T05:01:36.572Z,101521.51
2019-02-06T05:04:16.145Z,101524.10
2019-02-06T05:06:51.790Z,101512.44
2019-02-06T05:09:22.570Z,101516.77
2019-02-06T05:11:52.961Z,101512.48
2019-02-06T05:14:23.230Z,101511.19
2019-02-06T05:16:53.556Z,101515.53
2019-02-06T05:19:23.703Z,101520.30
2019-02-06T05:21:54.038Z,101520.38
2019-02-06T05:24:24.267Z,101513.47
2019-02-06T05:33:53.612Z,101528.17
2019-02-06T05:36:56.124Z,101523.97
2019-02-06T05:39:26.735Z,101532.57
2019-02-06T05:41:56.976Z,101528.77
2019-02-06T05:44:28.032Z,101527.42
2019-02-06T05:46:58.406Z,101531.75
2019-02-06T05:49:28.683Z,101533.86
2019-02-06T05:51:59.273Z,101533.05
2019-02-06T05:54:29.514Z,101533.53
2019-02-06T05:56:59.800Z,101533.06
2019-02-06T05:59:30.504Z,101536.98
2019-02-06T06:02:00.795Z,101530.92
2019-02-06T06:04:31.363Z,101530.52
2019-02-06T06:08:26.800Z,101531.84
2019-02-06T06:10:57.256Z,101527.05
2019-02-06T06:13:27.534Z,101525.88
2019-02-06T06:15:57.906Z,101525.80
2019-02-06T06:18:28.158Z,101534.91
2019-02-06T06:20:58.566Z,101533.63
2019-02-06T06:23:28.850Z,101527.63
2019-02-06T06:25:59.184Z,101526.73
2019-02-06T06:28:29.686Z,101526.72
2019-02-06T06:31:00.004Z,101525.00
2019-02-06T06:33:30.255Z,101520.68
2019-02-06T06:36:13.641Z,101518.94
2019-02-06T06:38:48.164Z,101523.69
2019-02-06T06:42:05.014Z,101523.69
2019-02-06T06:45:10.887Z,101525.00
2019-02-06T06:47:57.740Z,101522.78
2019-02-06T06:50:28.415Z,101518.86
2019-02-06T06:52:58.694Z,101520.53
2019-02-06T06:55:29.165Z,101520.44
2019-02-06T06:57:59.465Z,101511.66
2019-02-06T07:00:31.349Z,101516.27
2019-02-06T07:03:01.723Z,101512.20
2019-02-06T07:06:46.685Z,101510.20
2019-02-06T07:09:14.584Z,101499.72
2019-02-06T07:11:45.386Z,101496.11
2019-02-06T07:14:16.382Z,101497.09
2019-02-06T07:16:46.782Z,101492.33
2019-02-06T07:19:17.203Z,101494.48
2019-02-06T07:24:27.862Z,101493.02
2019-02-06T07:27:11.453Z,101489.38
2019-02-06T07:29:38.107Z,101489.10
2019-02-06T07:32:08.775Z,101488.00
2019-02-06T07:34:39.218Z,101487.66
2019-02-06T07:37:10.143Z,101475.69
2019-02-06T07:40:29.244Z,101473.55
2019-02-06T07:43:17.725Z,101467.91
2019-02-06T07:46:08.159Z,101462.88
2019-02-06T07:49:19.764Z,101454.44
2019-02-06T07:51:52.382Z,101453.20
2019-02-06T07:54:38.541Z,101458.70
2019-02-06T07:57:36.910Z,101449.86
2019-02-06T08:00:30.149Z,101459.81
2019-02-06T08:03:36.225Z,101466.83
2019-02-06T08:06:34.594Z,101453.30
2019-02-06T08:09:07.142Z,101439.37
2019-02-06T08:11:39.837Z,101437.58
2019-02-06T08:14:10.348Z,101432.53
2019-02-06T08:16:40.750Z,101436.93
2019-02-06T08:19:11.515Z,101434.80
2019-02-06T08:21:49.763Z,101436.11
2019-02-06T08:24:16.544Z,101432.30
2019-02-06T08:26:47.683Z,101426.76
2019-02-06T08:29:18.114Z,101422.49
2019-02-06T08:31:50.969Z,101424.80
2019-02-06T08:38:51.946Z,101434.31
2019-02-06T08:49:10.902Z,101420.77
2019-02-06T08:51:40.962Z,101427.71
2019-02-06T08:54:11.552Z,101416.32
2019-02-06T08:56:41.880Z,101418.28
2019-02-06T08:59:12.206Z,101417.83
2019-02-06T09:03:57.028Z,101416.77
2019-02-06T09:06:52.855Z,101417.08
2019-02-06T09:09:23.280Z,101414.35
2019-02-06T09:11:53.534Z,101408.08
2019-02-06T09:14:23.799Z,101404.36
2019-02-06T09:16:54.100Z,101405.12
2019-02-06T09:19:24.498Z,101400.74
2019-02-06T09:21:54.942Z,101402.09
2019-02-06T09:24:25.322Z,101400.84
2019-02-06T09:26:55.649Z,101397.29
2019-02-06T09:29:25.986Z,101391.12
2019-02-06T09:39:56.335Z,101378.09
2019-02-06T09:42:26.659Z,101374.69
2019-02-06T09:44:56.908Z,101370.56
2019-02-06T09:47:27.260Z,101375.84
2019-02-06T09:49:57.500Z,101372.43
2019-02-06T09:52:28.908Z,101368.41
2019-02-06T09:59:52.736Z,101372.44
2019-02-06T10:03:19.671Z,101364.19
2019-02-06T10:05:50.143Z,101369.79
2019-02-06T10:08:20.392Z,101358.63
2019-02-06T10:10:50.712Z,101356.59
2019-02-06T10:13:20.954Z,101351.30
2019-02-06T10:19:54.400Z,101353.44
2019-02-06T10:22:24.749Z,101348.79
2019-02-06T10:36:57.177Z,101353.75
2019-02-06T10:52:19.886Z,101319.78
2019-02-06T10:54:50.671Z,101316.54
2019-02-06T11:05:18.445Z,101298.66
2019-02-06T11:07:48.733Z,101292.02
2019-02-06T11:11:05.393Z,101285.17
2019-02-06T11:13:35.832Z,101287.97
2019-02-06T11:17:09.761Z,101285.55
2019-02-06T11:19:43.031Z,101278.98
2019-02-06T11:23:27.237Z,101271.04
2019-02-06T11:25:58.096Z,101269.33
2019-02-06T11:28:28.481Z,101261.44
2019-02-06T11:34:11.304Z,101246.87
2019-02-06T11:36:41.677Z,101243.55
2019-02-06T11:42:37.591Z,101233.89
2019-02-06T11:45:09.410Z,101234.00
2019-02-06T11:47:39.672Z,101231.11
2019-02-06T11:50:12.363Z,101225.14
2019-02-06T11:52:43.271Z,101216.47
2019-02-06T11:55:16.786Z,101217.96
2019-02-06T12:03:59.235Z,101207.56
2019-02-06T12:06:29.745Z,101198.55
2019-02-06T12:09:00.085Z,101188.40
2019-02-06T12:11:39.329Z,101184.65
2019-02-06T12:15:18.822Z,101185.77
2019-02-06T12:18:54.930Z,101173.03
2019-02-06T12:21:26.100Z,101176.11
2019-02-06T12:28:07.886Z,101170.98
2019-02-06T12:34:17.187Z,101166.98
2019-02-06T12:36:47.485Z,101161.44
2019-02-06T12:39:17.812Z,101154.29
2019-02-06T12:41:48.094Z,101156.64
2019-02-06T12:44:19.031Z,101148.04
2019-02-06T12:46:49.607Z,101149.45
2019-02-06T12:49:20.113Z,101138.51
2019-02-06T12:51:52.443Z,101130.13
2019-02-06T13:02:15.737Z,101121.95
2019-02-06T13:04:45.476Z,101126.86
2019-02-06T13:07:47.334Z,101126.23
2019-02-06T13:10:17.691Z,101117.20
2019-02-06T13:13:33.620Z,101121.89
2019-02-06T13:16:10.410Z,101110.61
2019-02-06T13:18:41.952Z,101113.80
2019-02-06T13:21:15.193Z,101118.13
2019-02-06T13:23:51.114Z,101107.91
2019-02-06T13:26:44.395Z,101106.03
2019-02-06T13:29:21.726Z,101093.63
2019-02-06T13:32:22.660Z,101085.80
2019-02-06T13:34:56.630Z,101081.03
2019-02-06T13:37:31.650Z,101081.02
2019-02-06T13:39:59.671Z,101072.26
2019-02-06T13:42:29.930Z,101071.60
2019-02-06T13:45:00.334Z,101061.72
2019-02-06T13:47:30.965Z,101069.55
2019-02-06T13:50:01.308Z,101068.33
2019-02-06T13:52:31.656Z,101073.67
2019-02-06T13:55:02.016Z,101059.54
2019-02-06T13:57:34.105Z,101064.61
2019-02-06T14:00:25.888Z,101059.68
2019-02-06T14:03:05.936Z,101060.77
2019-02-06T14:05:48.838Z,101059.36
2019-02-06T14:08:20.989Z,101054.26
2019-02-06T14:11:00.336Z,101049.95
2019-02-06T14:13:31.266Z,101044.23
2019-02-06T14:16:02.784Z,101043.32
2019-02-06T14:18:37.967Z,101037.13
2019-02-06T14:21:24.977Z,101033.45
2019-02-06T14:24:57.040Z,101038.81
2019-02-06T14:28:24.760Z,101038.97
2019-02-06T14:31:40.725Z,101038.47
2019-02-06T14:34:58.901Z,101028.77
2019-02-06T14:41:26.114Z,101026.70
2019-02-06T14:44:21.010Z,101022.16
2019-02-06T14:47:39.260Z,101022.38
2019-02-06T14:50:56.032Z,101021.84
2019-02-06T14:54:14.693Z,101013.54
2019-02-06T14:57:20.041Z,101024.45
2019-02-06T15:00:32.478Z,101019.08
2019-02-06T15:04:04.302Z,101022.35
2019-02-06T15:08:09.061Z,101021.16
2019-02-06T15:10:50.292Z,101013.02
2019-02-06T15:14:33.947Z,101006.73
2019-02-06T15:17:44.121Z,101004.25
2019-02-06T15:21:06.146Z,100995.38
2019-02-06T15:24:09.815Z,100993.10
2019-02-06T15:27:42.870Z,100995.70
2019-02-06T15:30:50.564Z,100991.58
2019-02-06T15:33:55.081Z,100991.73
2019-02-06T15:37:14.165Z,100989.06
2019-02-06T15:40:37.329Z,100986.49
2019-02-06T15:43:37.845Z,100975.72
2019-02-06T15:47:00.607Z,100977.55
2019-02-06T15:49:58.359Z,100976.70
2019-02-06T15:53:10.824Z,100978.03
2019-02-06T15:56:16.861Z,100979.72
2019-02-06T15:59:19.122Z,100971.84
2019-02-06T16:02:54.389Z,100967.36
2019-02-06T16:06:07.480Z,100963.25
2019-02-06T16:08:57.544Z,100967.82
2019-02-06T16:11:45.875Z,100969.31
2019-02-06T16:15:14.310Z,100960.59
2019-02-06T16:18:31.509Z,100963.39
2019-02-06T16:21:55.079Z,100963.23
2019-02-06T16:25:09.372Z,100956.81
2019-02-06T16:28:27.990Z,100963.22
2019-02-06T16:31:27.842Z,100960.22
2019-02-06T16:34:38.393Z,100963.55
2019-02-06T16:37:54.906Z,100961.34
2019-02-06T16:41:13.899Z,100973.91
2019-02-06T16:44:31.982Z,100966.45
2019-02-06T16:51:09.793Z,100968.58
2019-02-06T16:54:23.776Z,100968.97
2019-02-06T16:57:45.017Z,100960.33
2019-02-06T17:00:50.613Z,100967.66
2019-02-06T17:04:13.361Z,100969.80
2019-02-06T17:07:05.793Z,100964.19
2019-02-06T17:10:07.881Z,100960.56
2019-02-06T17:13:11.958Z,100961.73
2019-02-06T17:16:37.501Z,100957.79
2019-02-06T17:19:58.204Z,100956.98
2019-02-06T17:22:57.463Z,100956.50
2019-02-06T17:26:13.659Z,100961.54
2019-02-06T17:29:51.941Z,100963.59
2019-02-06T17:33:09.363Z,100967.19
2019-02-06T17:39:47.082Z,100958.74
2019-02-06T17:42:38.946Z,100963.17
2019-02-06T17:45:30.054Z,100957.79
2019-02-06T17:56:02.866Z,100963.87
2019-02-06T18:02:10.513Z,100959.36
2019-02-06T18:05:17.657Z,100965.98
2019-02-06T18:07:54.650Z,100959.95
2019-02-06T18:10:32.221Z,100963.48
2019-02-06T18:13:48.302Z,100962.13
2019-02-06T18:16:27.460Z,100961.50
2019-02-06T18:19:22.401Z,100958.77
2019-02-06T18:22:23.882Z,100955.84
2019-02-06T18:25:05.042Z,100947.16
2019-02-06T18:28:00.150Z,100946.85
2019-02-06T18:30:36.631Z,100947.59
2019-02-06T18:33:28.538Z,100943.05
2019-02-06T18:36:01.209Z,100945.20
2019-02-06T18:38:55.833Z,100937.05
2019-02-06T18:41:38.190Z,100937.98
2019-02-06T18:44:09.955Z,100941.05
2019-02-06T18:46:44.985Z,100943.59
2019-02-06T18:49:28.792Z,100943.41
2019-02-06T18:52:20.413Z,100940.41
2019-02-06T18:55:05.548Z,100938.56
2019-02-06T18:58:06.297Z,100931.16
2019-02-06T19:01:20.893Z,100928.67
2019-02-06T19:04:36.642Z,100940.00
2019-02-06T19:07:29.222Z,100938.50
2019-02-06T19:09:59.909Z,100936.31
2019-02-06T19:12:30.688Z,100935.81
2019-02-06T19:15:02.042Z,100929.91
2019-02-06T19:17:35.845Z,100929.99
2019-02-06T19:20:09.204Z,100923.09
2019-02-06T19:22:39.822Z,100919.79
2019-02-06T19:25:12.089Z,100918.87
2019-02-06T19:30:57.670Z,100907.44
2019-02-06T19:33:28.349Z,100901.91
2019-02-06T19:36:01.943Z,100901.53
2019-02-06T19:38:32.823Z,100899.37
2019-02-06T19:41:04.520Z,100904.70
2019-02-06T19:43:35.958Z,100907.00
2019-02-06T19:46:07.614Z,100900.23
2019-02-06T19:48:38.864Z,100893.33
2019-02-06T19:51:12.846Z,100890.84
2019-02-06T19:53:43.435Z,100887.02
2019-02-06T19:56:16.965Z,100887.73
2019-02-06T19:59:20.496Z,100892.38
2019-02-06T20:09:49.530Z,100888.13
2019-02-06T20:13:12.466Z,100882.44
2019-02-06T20:15:50.079Z,100874.23
2019-02-06T20:18:47.891Z,100875.73
2019-02-06T20:22:02.813Z,100882.35
2019-02-06T20:25:26.133Z,100880.52
2019-02-06T20:28:39.221Z,100874.22
2019-02-06T20:35:44.478Z,100864.68
2019-02-06T20:41:28.992Z,100863.02
2019-02-06T20:44:01.787Z,100862.31
2019-02-06T20:46:34.799Z,100850.28
2019-02-06T20:49:05.827Z,100848.77
2019-02-06T20:51:36.519Z,100844.48
2019-02-06T20:54:07.333Z,100848.93
2019-02-06T20:56:38.336Z,100851.98
2019-02-06T20:59:08.964Z,100845.68
2019-02-06T21:01:39.763Z,100845.59
2019-02-06T21:04:10.630Z,100848.84
2019-02-06T21:06:41.434Z,100843.30
2019-02-06T21:09:18.888Z,100841.52
2019-02-06T21:11:49.786Z,100840.80
2019-02-06T21:14:21.948Z,100844.00
2019-02-06T21:16:53.522Z,100843.19
2019-02-06T21:19:24.337Z,100841.45
2019-02-06T21:21:55.133Z,100848.23
2019-02-06T21:24:26.024Z,100844.92
2019-02-06T21:26:56.833Z,100847.36
2019-02-06T21:29:27.372Z,100841.05
2019-02-06T21:31:57.863Z,100845.98
2019-02-06T21:34:28.212Z,100836.87
2019-02-06T21:36:59.293Z,100835.84
2019-02-06T21:39:29.891Z,100836.95
2019-02-06T21:42:00.404Z,100829.47
2019-02-06T21:44:31.601Z,100829.37
2019-02-06T21:47:07.097Z,100829.20
2019-02-06T21:49:37.896Z,100830.78
2019-02-06T21:52:08.570Z,100825.41
2019-02-06T21:54:38.928Z,100812.89
2019-02-06T21:57:09.328Z,100806.81
2019-02-06T21:59:39.676Z,100799.81
2019-02-06T22:02:10.371Z,100800.69
2019-02-06T22:04:40.772Z,100787.55
2019-02-06T22:07:11.369Z,100782.19
2019-02-06T22:09:42.162Z,100777.14
2019-02-06T22:12:12.582Z,100777.53
2019-02-06T22:14:43.226Z,100779.59
2019-02-06T22:17:14.454Z,100765.16
2019-02-06T22:19:46.160Z,100764.26
2019-02-06T22:22:16.687Z,100757.48
2019-02-06T22:24:47.277Z,100765.69
2019-02-06T22:27:17.769Z,100761.77
2019-02-06T22:29:48.176Z,100758.73
2019-02-06T22:32:18.973Z,100750.83
2019-02-06T22:34:49.625Z,100748.85
2019-02-06T22:37:20.805Z,100749.88
2019-02-06T22:39:51.403Z,100743.58
2019-02-06T22:42:22.066Z,100736.57
2019-02-06T22:44:52.522Z,100736.02
2019-02-06T22:47:22.876Z,100737.27
2019-02-06T22:49:53.348Z,100729.13
2019-02-06T22:52:24.487Z,100722.95
2019-02-06T22:54:56.303Z,100720.40
2019-02-06T22:57:27.404Z,100721.09
2019-02-06T22:59:58.010Z,100718.91
2019-02-06T23:02:31.928Z,100718.66
2019-02-06T23:05:02.415Z,100723.50
2019-02-06T23:07:33.268Z,100724.41
2019-02-06T23:10:03.739Z,100730.91
2019-02-06T23:12:34.302Z,100733.58
2019-02-06T23:15:05.176Z,100743.49
2019-02-06T23:17:35.572Z,100739.22
2019-02-06T23:20:07.903Z,100725.41
2019-02-06T23:22:38.302Z,100727.31
2019-02-06T23:25:09.041Z,100725.69
2019-02-06T23:27:39.350Z,100720.00
2019-02-06T23:30:10.962Z,100713.05
2019-02-06T23:32:41.981Z,100699.44
2019-02-06T23:35:12.518Z,100702.28
2019-02-06T23:37:43.469Z,100706.39
2019-02-06T23:40:14.486Z,100706.60
2019-02-06T23:42:44.776Z,100695.77
2019-02-06T23:45:15.496Z,100689.34
2019-02-06T23:47:46.179Z,100678.86
2019-02-06T23:50:16.572Z,100685.28
2019-02-06T23:52:47.082Z,100679.91
2019-02-06T23:55:17.546Z,100681.16
2019-02-06T23:57:48.882Z,100681.66
